• Join FlightAware (Why Join?)
  • Login
  • US Flag 
01:02PM EST


 

Airport Tracker/Info


-or-


 

Live Flight TrackerFlight Track Log ✈ N762NC ✈ 18-Oct-2013 ✈ KATL - KMEM

Flight Track Log - Related Links

Times and Time Zones

All times are in EDT time to prevent confusion due to time zone crossing. See the N762NC flight status page for this flight to view local times or setup timezone preferences in your user account.

Time Position Orientation Groundspeed Altitude Reporting Facility
EDT Latitude Longitude Course Direction KTS MPH feet Rate Location/Type
12:24PM 33.6500 -84.4667 268° West 180 207 2,300  Level Atlanta TRACON
12:25PM 33.6667 -84.5500 284° West 248 285 4,600 2,100 Climbing Atlanta TRACON
12:26PM 33.6833 -84.6167 287° West 255 293 6,400 1,980 Climbing Atlanta TRACON
12:27PM 33.7334 -84.7749 280° West  Level Estimated
12:28PM 33.7275 -84.8967 267° West  Level FlightAware Approximate
12:28PM 33.7147 -84.7881 282° West 273 314 10,600  Level Atlanta Center
12:29PM 33.7603 -85.0123 270° West  Level Estimated
12:29PM 33.7119 -84.8853 268° West 287 330 11,700  Level Atlanta Center
12:30PM 33.7929 -85.1279 268° West  Level Estimated
12:30PM 33.7069 -84.9953 267° West 313 360 14,200  Level Atlanta Center
12:31PM 33.7042 -85.1050 268° West 331 381 16,300 1,920 Climbing Atlanta Center
12:32PM 33.7008 -85.2275 268° West 331 381 18,100 1,860 Climbing Atlanta Center
12:33PM 33.7081 -85.3422 274° West 337 388 20,100 1,800 Climbing Atlanta Center
12:34PM 33.7067 -85.4597 269° West 348 400 21,700 1,620 Climbing Atlanta Center
12:35PM 33.7011 -85.5744 267° West 353 406 23,400 1,380 Climbing Atlanta Center
12:36PM 33.7081 -85.6969 274° West 353 406 24,500 780 Climbing Atlanta Center
12:37PM 33.7208 -85.8144 277° West 364 419 25,000 420 Climbing Atlanta Center
12:38PM 33.7378 -85.9472 279° West 378 435 25,400 960 Climbing Atlanta Center
12:39PM 33.7586 -86.0828 281° West 397 457 27,000 1,260 Climbing Atlanta Center
12:40PM 33.7814 -86.2108 282° West 402 463 28,000 480 Climbing Atlanta Center
12:41PM 33.8042 -86.3411 282° West 402 463 28,000  Level Atlanta Center
12:42PM 33.8286 -86.4694 283° West 402 463 28,000  Level Atlanta Center
12:43PM 33.8533 -86.6003 283° West 402 463 28,000  Level Atlanta Center
12:44PM 33.8775 -86.7286 283° West 395 455 28,000  Level Atlanta Center
12:47PM 33.9272 -87.0128 282° West 411 473 28,000  Level Memphis Center
12:48PM 33.9497 -87.1494 281° West 422 486 28,000  Level Memphis Center
12:49PM 33.9803 -87.2861 285° West 407 468 28,000  Level Memphis Center
12:50PM 34.0064 -87.4156 284° West 402 463 28,000  Level Memphis Center
12:51PM 34.0386 -87.5472 286° West 407 468 28,000  Level Memphis Center
12:52PM 34.0642 -87.6617 285° West 402 463 28,000  Level Memphis Center
12:53PM 34.0981 -87.7861 288° West 396 456 28,000 -60 Level Memphis Center
12:54PM 34.1608 -87.9047 303° West 401 461 27,900 -600 Descending Memphis Center
12:55PM 34.2069 -88.0239 295° West 398 458 26,800 -1,020 Descending Memphis Center
12:56PM 34.2528 -88.1233 299° West 391 450 25,900 -1,500 Descending Memphis Center
12:57PM 34.3108 -88.2297 303° West 362 417 23,900 -1,560 Descending Memphis Center
12:58PM 34.3625 -88.3217 304° West 344 396 22,800 -1,320 Descending Memphis Center
12:59PM 34.4058 -88.4214 298° West 334 384 21,300 -1,500 Descending Memphis Center
01:00PM 34.4511 -88.5186 299° West 334 384 19,900 -1,080 Descending Memphis Center
01:01PM 34.5047 -88.6131 305° West 334 384 19,200 -900 Descending Memphis Center
01:02PM 34.5561 -88.7003 306° West 334 384 18,200 -1,440 Descending Memphis Center
01:03PM 34.6053 -88.7953 302° West 329 379 16,400 -1,800 Descending Memphis Center
01:04PM 34.6522 -88.8953 300° West 320 368 14,700 -1,800 Descending Memphis Center
01:05PM 34.6722 -88.9986 283° West 314 361 12,900 -1,860 Descending Memphis Center
01:06PM 34.6797 -89.0994 275° West 308 354 11,000 -1,380 Descending Memphis Center
01:07PM 34.6867 -89.1853 276° West 302 348 10,200 -540 Descending Memphis Center
01:08PM 34.7064 -89.2733 285° West 285 328 10,000 -720 Descending Memphis Center
01:09PM 34.7361 -89.3489 296° West 256 295 8,800 -1,380 Descending Memphis Center
01:10PM 34.7494 -89.4319 281° West 243 280 7,300 -1,500 Descending Memphis Center
01:11PM 34.7625 -89.5103 281° West 243 280 5,800 -1,440 Descending Memphis Center
01:12PM 34.7756 -89.5911 281° West 238 274 4,500 -960 Descending Memphis Center
01:13PM 34.7906 -89.6769 282° West 238 274 3,900 -720 Descending Memphis Center
01:14PM 34.8014 -89.7578 279° West 238 274 3,100 -480 Descending Memphis Center
01:15PM 34.8164 -89.8436 282° West 243 280 3,000 -60 Descending Memphis Center
01:16PM 34.8292 -89.9194 282° West 249 287 3,000  Level Memphis Center
01:17PM 34.8669 -89.9750 310° West 239 275 3,000 -360 Level Memphis Center
01:17PM 34.9167 -89.9667 North 198 228 2,400 -840 Descending KMEM
01:18PM 34.9500 -89.9667 360° North 184 212 1,700 -900 Descending KMEM
01:19PM 35.0000 -89.9667 360° North 151 174 700 -960 Descending KMEM